createdAt,value
2023-01-13T00:00:36.455Z,31.70
2023-01-13T00:03:40.723Z,32.60
2023-01-13T00:06:42.995Z,32.58
2023-01-13T00:09:45.513Z,31.55
2023-01-13T00:12:47.667Z,34.38
2023-01-13T00:16:01.778Z,33.58
2023-01-13T00:22:06.768Z,31.00
2023-01-13T00:25:09.468Z,32.57
2023-01-13T00:28:12.067Z,28.62
2023-01-13T00:31:17.317Z,31.25
2023-01-13T00:34:20.070Z,29.70
2023-01-13T00:37:22.460Z,31.50
2023-01-13T00:40:24.966Z,28.97
2023-01-13T00:43:29.505Z,28.60
2023-01-13T00:46:32.324Z,27.90
2023-01-13T00:49:34.619Z,27.37
2023-01-13T00:52:37.135Z,26.33
2023-01-13T00:55:39.767Z,24.63
2023-01-13T00:58:44.256Z,25.00
2023-01-13T01:01:46.587Z,25.05
2023-01-13T01:04:49.272Z,26.27
2023-01-13T01:07:51.602Z,22.45
2023-01-13T01:11:03.322Z,25.08
2023-01-13T01:14:05.626Z,22.00
2023-01-13T01:17:08.216Z,22.20
2023-01-13T01:20:11.088Z,21.42
2023-01-13T01:23:13.623Z,23.60
2023-01-13T01:26:24.735Z,21.45
2023-01-13T01:29:27.470Z,19.65
2023-01-13T01:32:29.690Z,22.52
2023-01-13T01:35:32.245Z,23.70
2023-01-13T01:38:34.394Z,20.88
2023-01-13T01:41:37.347Z,22.37
2023-01-13T01:44:42.374Z,23.70
2023-01-13T01:47:47.623Z,21.35
2023-01-13T01:50:49.967Z,20.10
2023-01-13T01:53:55.234Z,21.42
2023-01-13T01:56:58.076Z,20.27
2023-01-13T02:00:02.375Z,21.90
2023-01-13T02:03:16.153Z,21.37
2023-01-13T02:06:19.060Z,20.05
2023-01-13T02:09:21.237Z,19.02
2023-01-13T02:12:32.500Z,19.85
2023-01-13T02:16:05.956Z,20.33
2023-01-13T02:19:19.418Z,19.87
2023-01-13T02:23:03.371Z,19.42
2023-01-13T02:26:33.166Z,19.37
2023-01-13T02:30:50.963Z,20.67
2023-01-13T02:34:13.670Z,20.37
2023-01-13T02:37:28.797Z,20.83
2023-01-13T02:40:31.482Z,18.33
2023-01-13T02:43:57.682Z,20.83
2023-01-13T02:47:22.621Z,17.55
2023-01-13T02:50:32.311Z,18.92
2023-01-13T02:53:41.749Z,20.60
2023-01-13T02:56:48.400Z,18.52
2023-01-13T02:59:55.137Z,17.30
2023-01-13T03:02:57.771Z,18.10
2023-01-13T03:06:09.084Z,17.55
2023-01-13T03:09:39.567Z,17.45
2023-01-13T03:13:01.012Z,17.80
2023-01-13T03:16:23.421Z,18.98
2023-01-13T03:19:46.887Z,19.67
2023-01-13T03:22:55.304Z,16.37
2023-01-13T03:26:10.835Z,18.30
2023-01-13T03:29:25.627Z,16.48
2023-01-13T03:32:36.702Z,17.00
2023-01-13T03:35:44.962Z,17.30
2023-01-13T03:38:53.935Z,18.42
2023-01-13T03:42:02.259Z,17.27
2023-01-13T03:45:17.842Z,15.82
2023-01-13T03:48:22.873Z,16.27
2023-01-13T03:51:31.356Z,15.57
2023-01-13T03:54:39.346Z,17.05
2023-01-13T03:57:50.050Z,14.80
2023-01-13T04:01:04.081Z,15.07
2023-01-13T04:04:14.045Z,15.20
2023-01-13T04:07:42.696Z,16.10
2023-01-13T04:10:53.641Z,15.48
2023-01-13T04:13:56.728Z,14.65
2023-01-13T04:16:59.331Z,15.45
2023-01-13T04:20:01.622Z,16.95
2023-01-13T04:23:04.294Z,15.77
2023-01-13T04:26:06.608Z,14.68
2023-01-13T04:29:09.187Z,15.93
2023-01-13T04:32:11.427Z,15.82
2023-01-13T04:35:14.115Z,16.83
2023-01-13T04:38:19.992Z,15.40
2023-01-13T04:41:22.644Z,17.02
2023-01-13T04:44:26.092Z,19.35
2023-01-13T04:47:28.692Z,17.67
2023-01-13T04:50:31.220Z,17.60
2023-01-13T04:53:33.885Z,17.62
2023-01-13T04:56:39.551Z,16.73
2023-01-13T04:59:46.212Z,16.45
2023-01-13T05:02:52.163Z,17.02
2023-01-13T05:05:54.691Z,15.13
2023-01-13T05:08:57.747Z,14.45
2023-01-13T05:15:39.888Z,15.88
2023-01-13T05:18:42.592Z,17.02
2023-01-13T05:22:03.265Z,13.30
2023-01-13T05:25:24.678Z,15.07
2023-01-13T05:28:31.595Z,15.85
2023-01-13T05:31:34.305Z,15.07
2023-01-13T05:34:36.998Z,16.27
2023-01-13T05:37:39.686Z,15.03
2023-01-13T05:41:01.132Z,15.82
2023-01-13T05:44:04.268Z,14.43
2023-01-13T05:47:06.813Z,18.03
2023-01-13T05:50:10.450Z,16.03
2023-01-13T05:53:13.463Z,15.43
2023-01-13T05:59:19.987Z,15.10
2023-01-13T06:02:26.889Z,17.30
2023-01-13T06:05:30.783Z,15.25
2023-01-13T06:08:33.034Z,14.95
2023-01-13T06:11:36.149Z,14.05
2023-01-13T06:14:41.276Z,13.62
2023-01-13T06:17:44.172Z,16.05
2023-01-13T06:20:47.207Z,15.98
2023-01-13T06:23:49.799Z,16.48
2023-01-13T06:26:52.166Z,13.93
2023-01-13T06:29:56.677Z,16.67
2023-01-13T06:33:01.903Z,17.35
2023-01-13T06:36:13.828Z,18.00
2023-01-13T06:39:20.217Z,16.50
2023-01-13T06:42:41.542Z,15.32
2023-01-13T06:45:51.123Z,16.17
2023-01-13T06:48:53.848Z,15.25
2023-01-13T06:51:56.084Z,16.02
2023-01-13T06:54:58.638Z,16.35
2023-01-13T06:58:02.553Z,16.52
2023-01-13T07:01:06.760Z,15.55
2023-01-13T07:04:09.088Z,14.23
2023-01-13T07:07:12.456Z,14.57
2023-01-13T07:10:22.089Z,17.33
2023-01-13T07:13:43.745Z,14.23
2023-01-13T07:16:46.859Z,14.13
2023-01-13T07:19:49.557Z,14.05
2023-01-13T07:22:55.866Z,14.25
2023-01-13T07:25:59.568Z,13.93
2023-01-13T07:29:01.859Z,12.82
2023-01-13T07:32:05.541Z,13.00
2023-01-13T07:35:08.087Z,13.60
2023-01-13T07:38:12.245Z,14.00
2023-01-13T07:41:33.654Z,14.73
2023-01-13T07:44:36.489Z,13.27
2023-01-13T07:47:39.131Z,13.52
2023-01-13T07:50:44.056Z,12.95
2023-01-13T07:53:46.604Z,11.85
2023-01-13T07:56:49.205Z,12.90
2023-01-13T07:59:51.424Z,13.00
2023-01-13T08:02:53.971Z,13.62
2023-01-13T08:05:56.572Z,14.90
2023-01-13T08:08:58.935Z,14.05
2023-01-13T08:12:21.116Z,13.00
2023-01-13T08:15:23.852Z,14.57
2023-01-13T08:18:26.472Z,14.43
2023-01-13T08:21:28.862Z,13.75
2023-01-13T08:24:31.538Z,11.47
2023-01-13T08:27:34.125Z,11.32
2023-01-13T08:30:36.887Z,11.75
2023-01-13T08:33:40.067Z,10.30
2023-01-13T08:36:42.673Z,11.70
2023-01-13T08:39:44.946Z,9.85
2023-01-13T08:42:48.727Z,10.68
2023-01-13T08:46:22.447Z,10.88
2023-01-13T08:49:25.913Z,10.88
2023-01-13T08:52:30.630Z,11.07
2023-01-13T08:55:33.344Z,9.63
2023-01-13T08:58:35.734Z,10.25
2023-01-13T09:01:39.435Z,10.82
2023-01-13T09:04:42.124Z,11.05
2023-01-13T09:07:45.049Z,9.38
2023-01-13T09:10:47.518Z,11.40
2023-01-13T09:13:50.533Z,12.47
2023-01-13T09:16:52.820Z,11.17
2023-01-13T09:19:55.869Z,10.40
2023-01-13T09:22:58.133Z,12.70
2023-01-13T09:26:00.829Z,12.17
2023-01-13T09:29:03.589Z,12.20
2023-01-13T09:32:07.142Z,11.27
2023-01-13T09:35:09.778Z,12.27
2023-01-13T09:38:12.759Z,13.43
2023-01-13T09:41:39.699Z,12.57
2023-01-13T09:45:01.698Z,11.35
2023-01-13T09:48:22.545Z,11.93
2023-01-13T09:51:34.591Z,12.07
2023-01-13T09:54:44.326Z,13.40
2023-01-13T09:57:47.105Z,11.48
2023-01-13T10:00:55.522Z,12.77
2023-01-13T10:04:03.866Z,12.30
2023-01-13T10:07:13.803Z,12.40
2023-01-13T10:10:32.215Z,12.45
2023-01-13T10:13:35.328Z,13.95
2023-01-13T10:16:46.070Z,14.00
2023-01-13T10:19:50.566Z,13.62
2023-01-13T10:23:34.544Z,12.98
2023-01-13T10:27:16.281Z,12.32
2023-01-13T10:30:31.684Z,12.35
2023-01-13T10:33:34.120Z,12.07
2023-01-13T10:36:36.705Z,11.37
2023-01-13T10:39:47.163Z,12.23
2023-01-13T10:43:05.626Z,12.13
2023-01-13T10:46:13.346Z,15.05
2023-01-13T10:49:36.516Z,12.57
2023-01-13T10:52:43.401Z,13.93
2023-01-13T10:56:01.990Z,14.20
2023-01-13T10:59:18.369Z,14.25
2023-01-13T11:02:30.677Z,14.02
2023-01-13T11:05:33.012Z,12.07
2023-01-13T11:08:45.244Z,12.77
2023-01-13T11:11:50.193Z,14.60
2023-01-13T11:14:53.141Z,14.05
2023-01-13T11:18:09.409Z,13.62
2023-01-13T11:21:22.515Z,12.48
2023-01-13T11:24:51.226Z,12.40
2023-01-13T11:28:02.510Z,11.85
2023-01-13T11:31:16.968Z,14.65
2023-01-13T11:34:25.828Z,13.15
2023-01-13T11:37:33.746Z,13.73
2023-01-13T11:40:46.036Z,14.18
2023-01-13T11:43:55.727Z,14.38
2023-01-13T11:46:58.612Z,13.62
2023-01-13T11:50:01.687Z,14.75
2023-01-13T11:53:08.776Z,13.30
2023-01-13T11:56:27.613Z,12.68
2023-01-13T12:00:15.316Z,12.75
2023-01-13T12:03:31.187Z,14.80
2023-01-13T12:06:40.609Z,13.30
2023-01-13T12:09:56.004Z,14.32
2023-01-13T12:13:33.777Z,14.70
2023-01-13T12:16:46.741Z,14.90
2023-01-13T12:19:51.149Z,14.55
2023-01-13T12:22:58.305Z,16.35
2023-01-13T12:26:12.327Z,17.17
2023-01-13T12:29:18.965Z,13.05
2023-01-13T12:32:44.816Z,13.85
2023-01-13T12:36:15.885Z,16.23
2023-01-13T12:39:20.971Z,14.65
2023-01-13T12:43:25.994Z,17.17
2023-01-13T12:46:28.180Z,15.60
2023-01-13T12:49:36.261Z,15.48
2023-01-13T12:52:45.436Z,16.87
2023-01-13T12:55:52.219Z,17.62
2023-01-13T12:59:14.366Z,15.15
2023-01-13T13:02:27.547Z,15.27
2023-01-13T13:05:39.040Z,17.83
2023-01-13T13:09:03.169Z,15.55
2023-01-13T13:12:49.413Z,15.80
2023-01-13T13:15:52.148Z,16.40
2023-01-13T13:19:21.243Z,15.77
2023-01-13T13:22:26.714Z,18.87
2023-01-13T13:25:32.086Z,16.35
2023-01-13T13:28:41.186Z,14.10
2023-01-13T13:32:07.854Z,16.65
2023-01-13T13:35:32.532Z,14.90
2023-01-13T13:39:25.782Z,14.38
2023-01-13T13:42:55.563Z,14.52
2023-01-13T13:46:16.575Z,15.27
2023-01-13T13:49:36.447Z,16.37
2023-01-13T13:52:43.429Z,13.80
2023-01-13T13:55:59.537Z,14.25
2023-01-13T13:59:02.046Z,14.63
2023-01-13T14:02:18.553Z,16.27
2023-01-13T14:05:24.890Z,14.13
2023-01-13T14:08:29.638Z,16.30
2023-01-13T14:11:33.667Z,15.38
2023-01-13T14:17:38.624Z,13.50
2023-01-13T14:20:42.092Z,14.50
2023-01-13T14:23:56.567Z,14.10
2023-01-13T14:27:16.929Z,13.25
2023-01-13T14:30:19.726Z,12.48
2023-01-13T14:33:27.295Z,12.88
2023-01-13T14:36:32.853Z,14.48
2023-01-13T14:39:39.557Z,13.68
2023-01-13T14:42:42.301Z,15.18
2023-01-13T14:45:55.156Z,14.00
2023-01-13T14:49:01.415Z,13.40
2023-01-13T14:52:20.571Z,13.57
2023-01-13T14:55:40.309Z,12.88
2023-01-13T14:58:42.819Z,12.95
2023-01-13T15:01:45.651Z,16.43
2023-01-13T15:04:50.433Z,14.23
2023-01-13T15:07:54.667Z,14.68
2023-01-13T15:11:03.404Z,17.35
2023-01-13T15:14:10.702Z,15.50
2023-01-13T15:17:16.571Z,15.60
2023-01-13T15:20:22.681Z,16.92
2023-01-13T15:23:25.011Z,16.33
2023-01-13T15:26:29.935Z,15.00
2023-01-13T15:29:32.859Z,15.15
2023-01-13T15:32:35.321Z,14.98
2023-01-13T15:35:39.222Z,15.85
2023-01-13T15:38:41.732Z,14.68
2023-01-13T15:42:02.562Z,17.35
2023-01-13T15:45:24.036Z,14.10
2023-01-13T15:48:28.115Z,17.75
2023-01-13T15:51:30.611Z,17.65
2023-01-13T15:54:32.855Z,15.50
2023-01-13T15:57:37.791Z,13.95
2023-01-13T16:00:42.257Z,17.58
2023-01-13T16:03:45.174Z,15.40
2023-01-13T16:06:47.640Z,15.82
2023-01-13T16:09:50.372Z,15.60
2023-01-13T16:12:53.251Z,15.32
2023-01-13T16:15:56.808Z,17.55
2023-01-13T16:18:59.237Z,15.02
2023-01-13T16:22:01.762Z,14.75
2023-01-13T16:25:04.368Z,13.18
2023-01-13T16:28:06.873Z,13.73
2023-01-13T16:31:24.229Z,13.70
2023-01-13T16:34:26.936Z,12.60
2023-01-13T16:37:29.719Z,13.23
2023-01-13T16:40:36.600Z,15.10
2023-01-13T16:43:39.415Z,13.68
2023-01-13T16:46:44.552Z,13.38
2023-01-13T16:49:47.227Z,13.93
2023-01-13T16:52:49.956Z,13.97
2023-01-13T16:55:52.756Z,13.82
2023-01-13T16:58:58.736Z,16.23
2023-01-13T17:02:02.061Z,12.73
2023-01-13T17:05:05.881Z,13.85
2023-01-13T17:08:19.034Z,12.30
2023-01-13T17:11:22.095Z,14.52
2023-01-13T17:14:25.288Z,10.73
2023-01-13T17:17:28.207Z,12.07
2023-01-13T17:20:30.600Z,14.48
2023-01-13T17:23:33.454Z,13.47
2023-01-13T17:26:38.249Z,12.32
2023-01-13T17:29:40.911Z,14.02
2023-01-13T17:32:43.087Z,13.77
2023-01-13T17:35:46.684Z,13.10
2023-01-13T17:38:49.221Z,13.60
2023-01-13T17:41:55.980Z,13.90
2023-01-13T17:44:59.403Z,12.43
2023-01-13T17:48:02.047Z,12.82
2023-01-13T17:51:08.782Z,14.43
2023-01-13T17:54:12.447Z,16.25
2023-01-13T17:57:14.786Z,13.85
2023-01-13T18:00:18.667Z,13.85
2023-01-13T18:03:21.218Z,12.82
2023-01-13T18:06:23.648Z,12.05
2023-01-13T18:09:26.749Z,13.68
2023-01-13T18:12:29.330Z,15.50
2023-01-13T18:15:32.481Z,13.40
2023-01-13T18:18:34.766Z,12.80
2023-01-13T18:21:56.333Z,15.27
2023-01-13T18:25:17.737Z,14.30
2023-01-13T18:28:20.512Z,14.23
2023-01-13T18:31:22.840Z,15.05
2023-01-13T18:34:25.485Z,13.23
2023-01-13T18:37:27.811Z,14.52
2023-01-13T18:40:30.408Z,15.20
2023-01-13T18:43:33.343Z,15.57
2023-01-13T18:46:35.921Z,14.87
2023-01-13T18:49:38.218Z,16.02
2023-01-13T18:52:41.316Z,15.55
2023-01-13T18:55:44.006Z,11.85
2023-01-13T18:58:52.054Z,13.37
2023-01-13T19:01:55.072Z,16.48
2023-01-13T19:08:00.607Z,14.15
2023-01-13T19:11:07.176Z,18.45
2023-01-13T19:14:09.732Z,15.18
2023-01-13T19:17:15.456Z,14.43
2023-01-13T19:20:17.966Z,15.27
2023-01-13T19:23:20.962Z,15.63
2023-01-13T19:26:23.207Z,15.15
2023-01-13T19:29:26.122Z,16.00
2023-01-13T19:32:30.558Z,14.38
2023-01-13T19:35:33.531Z,15.27
2023-01-13T19:38:37.671Z,16.25
2023-01-13T19:41:58.974Z,15.25
2023-01-13T19:45:19.876Z,14.70
2023-01-13T19:48:22.357Z,16.52
2023-01-13T19:51:25.011Z,17.65
2023-01-13T19:54:27.717Z,18.17
2023-01-13T19:57:30.750Z,15.40
2023-01-13T20:00:34.847Z,15.57
2023-01-13T20:03:38.040Z,15.80
2023-01-13T20:06:41.045Z,15.00
2023-01-13T20:09:44.813Z,17.77
2023-01-13T20:12:47.175Z,15.55
2023-01-13T20:15:49.765Z,15.73
2023-01-13T20:18:52.081Z,14.13
2023-01-13T20:21:54.710Z,18.25
2023-01-13T20:24:57.255Z,18.10
2023-01-13T20:28:01.978Z,16.90
2023-01-13T20:31:12.059Z,17.02
2023-01-13T20:34:15.425Z,18.20
2023-01-13T20:37:17.686Z,17.23
2023-01-13T20:40:20.726Z,18.42
2023-01-13T20:43:23.020Z,19.60
2023-01-13T20:46:25.764Z,15.63
2023-01-13T20:49:28.267Z,17.75
2023-01-13T20:52:30.917Z,15.57
2023-01-13T20:55:33.067Z,15.82
2023-01-13T20:58:37.966Z,17.87
2023-01-13T21:01:40.334Z,20.92
2023-01-13T21:04:43.293Z,18.07
2023-01-13T21:07:45.542Z,21.42
2023-01-13T21:10:47.976Z,18.45
2023-01-13T21:14:09.009Z,20.73
2023-01-13T21:17:33.361Z,19.25
2023-01-13T21:20:37.142Z,18.23
2023-01-13T21:23:46.743Z,21.95
2023-01-13T21:26:59.102Z,20.25
2023-01-13T21:30:01.654Z,21.15
2023-01-13T21:33:06.053Z,20.33
2023-01-13T21:36:12.734Z,21.90
2023-01-13T21:39:16.083Z,23.80
2023-01-13T21:45:58.148Z,20.90
2023-01-13T21:49:01.174Z,20.95
2023-01-13T21:52:03.420Z,24.25
2023-01-13T21:55:21.560Z,24.17
2023-01-13T21:58:24.111Z,22.83
2023-01-13T22:01:26.786Z,25.53
2023-01-13T22:04:29.435Z,24.83
2023-01-13T22:07:33.328Z,22.95
2023-01-13T22:10:35.996Z,21.70
2023-01-13T22:14:17.236Z,24.52
2023-01-13T22:17:21.491Z,23.60
2023-01-13T22:20:23.796Z,23.62
2023-01-13T22:23:26.501Z,24.37
2023-01-13T22:26:28.786Z,23.65
2023-01-13T22:29:31.204Z,28.30
2023-01-13T22:32:36.380Z,23.83
2023-01-13T22:35:38.932Z,23.58
2023-01-13T22:38:41.187Z,22.70
2023-01-13T22:41:43.807Z,21.95
2023-01-13T22:44:46.039Z,22.15
2023-01-13T22:47:49.761Z,23.67
2023-01-13T22:50:52.341Z,23.25
2023-01-13T22:53:54.922Z,24.77
2023-01-13T22:56:57.169Z,22.48
2023-01-13T22:59:59.637Z,23.70
2023-01-13T23:03:01.838Z,21.55
2023-01-13T23:06:05.282Z,23.70
2023-01-13T23:09:08.079Z,21.05
2023-01-13T23:12:10.597Z,22.80
2023-01-13T23:15:12.833Z,23.52
2023-01-13T23:18:15.302Z,21.35
2023-01-13T23:21:23.808Z,23.10
2023-01-13T23:24:27.923Z,23.65
2023-01-13T23:27:30.283Z,24.77
2023-01-13T23:30:33.036Z,24.27
2023-01-13T23:33:37.535Z,24.50
2023-01-13T23:36:41.709Z,21.77
2023-01-13T23:39:44.123Z,26.60
2023-01-13T23:42:46.721Z,23.60
2023-01-13T23:45:49.489Z,22.40
2023-01-13T23:48:52.356Z,24.63
2023-01-13T23:51:54.722Z,21.87
2023-01-13T23:54:59.087Z,21.17
2023-01-13T23:58:01.555Z,25.75
